Time;durP1;ratioP1;P1;durP2;ratioP2;P2;SDS_P1;SDS_P2;PMS_P1;PMS_P2;Temp;Humidity;BMP_temperature;BMP_pressure;BME280_temperature;BME280_humidity;BME280_pressure;Samples;Min_cycle;Max_cycle;Signal;HPM_P1;HPM_P2
2023/01/01 00:01:23;;;;;;;25.03;18.30;;;5.00;78.30;;;;;;5014787;28;20426;-63
2023/01/01 00:03:50;;;;;;;31.40;20.57;;;5.00;78.40;;;;;;5025847;28;20446;-63
2023/01/01 00:06:15;;;;;;;27.93;18.73;;;4.90;78.70;;;;;;5009545;28;20242;-63
2023/01/01 00:08:41;;;;;;;27.67;16.73;;;4.90;78.70;;;;;;5032093;28;20524;-63
2023/01/01 00:11:08;;;;;;;25.47;18.00;;;4.90;78.80;;;;;;5014601;28;20230;-63
2023/01/01 00:13:36;;;;;;;20.63;14.53;;;4.80;78.50;;;;;;5017188;28;20188;-63
2023/01/01 00:16:10;;;;;;;17.83;14.33;;;4.70;79.00;;;;;;5024653;28;20517;-63
2023/01/01 00:18:36;;;;;;;19.77;12.07;;;4.70;79.10;;;;;;5020682;28;20422;-63
2023/01/01 00:21:11;;;;;;;21.00;14.83;;;4.80;79.20;;;;;;5033530;28;20441;-63
2023/01/01 00:23:36;;;;;;;15.57;12.00;;;4.80;79.60;;;;;;5022799;28;20436;-63
2023/01/01 00:26:09;;;;;;;20.27;14.47;;;4.80;79.50;;;;;;5020353;28;20449;-64
2023/01/01 00:28:35;;;;;;;19.37;14.03;;;4.80;79.70;;;;;;5033322;28;20241;-63
2023/01/01 00:31:09;;;;;;;16.27;10.70;;;4.90;79.70;;;;;;5035609;28;20437;-63
2023/01/01 00:33:34;;;;;;;20.40;14.33;;;4.90;79.60;;;;;;5021688;28;20191;-63
2023/01/01 00:36:10;;;;;;;23.43;15.57;;;4.90;79.10;;;;;;5009539;28;20445;-63
2023/01/01 00:38:36;;;;;;;25.50;15.13;;;4.80;79.10;;;;;;5033723;28;20194;-62
2023/01/01 00:41:02;;;;;;;24.43;16.23;;;4.70;79.00;;;;;;5035537;28;20449;-63
2023/01/01 00:43:28;;;;;;;20.50;14.37;;;4.70;79.00;;;;;;5028690;28;20432;-63
2023/01/01 00:45:54;;;;;;;24.10;15.57;;;4.50;78.70;;;;;;5027970;28;20442;-63
2023/01/01 00:48:20;;;;;;;28.30;16.47;;;4.50;78.50;;;;;;5031885;28;20219;-63
2023/01/01 00:50:50;;;;;;;26.43;18.07;;;4.30;78.70;;;;;;5022024;28;20205;-63
2023/01/01 00:53:16;;;;;;;22.90;16.67;;;4.20;79.60;;;;;;5018930;28;20492;-63
2023/01/01 00:55:42;;;;;;;22.70;16.07;;;4.10;80.00;;;;;;5028288;28;20442;-63
2023/01/01 00:58:09;;;;;;;20.70;15.93;;;4.00;80.20;;;;;;5021256;28;20187;-63
2023/01/01 01:00:36;;;;;;;20.00;14.13;;;3.90;79.90;;;;;;5028255;28;20433;-63
2023/01/01 01:03:02;;;;;;;20.33;14.60;;;3.90;79.50;;;;;;5013665;28;20525;-62
2023/01/01 01:05:27;;;;;;;25.87;18.40;;;3.90;79.50;;;;;;5034241;28;20437;-63
2023/01/01 01:07:53;;;;;;;27.30;17.27;;;3.70;80.00;;;;;;5031791;28;20482;-62
2023/01/01 01:10:21;;;;;;;21.63;15.03;;;3.70;80.60;;;;;;5020346;28;20657;-63
2023/01/01 01:12:46;;;;;;;24.93;16.90;;;3.60;81.00;;;;;;5015990;28;20945;-63
2023/01/01 01:15:13;;;;;;;28.57;18.97;;;3.60;80.90;;;;;;5018500;28;20430;-62
2023/01/01 01:17:38;;;;;;;21.97;15.83;;;3.50;80.80;;;;;;5033796;28;20188;-63
2023/01/01 01:20:05;;;;;;;24.13;16.50;;;3.50;80.60;;;;;;5031625;28;20422;-62
2023/01/01 01:22:33;;;;;;;22.40;15.57;;;3.50;80.70;;;;;;5003830;28;20192;-63
2023/01/01 01:24:59;;;;;;;19.17;14.17;;;3.50;80.60;;;;;;5041978;28;20488;-63
2023/01/01 01:27:25;;;;;;;21.23;13.97;;;3.50;80.80;;;;;;5026788;28;20430;-63
2023/01/01 01:29:51;;;;;;;20.97;12.87;;;3.50;81.10;;;;;;5036020;28;20209;-63
2023/01/01 01:32:17;;;;;;;16.43;12.53;;;3.50;82.30;;;;;;5027374;28;20429;-63
2023/01/01 01:34:43;;;;;;;17.20;12.47;;;3.50;82.60;;;;;;5015388;28;20450;-63
2023/01/01 01:37:09;;;;;;;18.97;13.33;;;3.60;82.60;;;;;;5013398;28;20430;-63
2023/01/01 01:39:35;;;;;;;17.73;12.80;;;3.80;83.40;;;;;;5019479;28;20281;-63
2023/01/01 01:42:03;;;;;;;14.13;10.57;;;3.90;83.10;;;;;;5004773;28;20194;-63
2023/01/01 01:44:44;;;;;;;12.43;10.10;;;3.90;82.60;;;;;;5005643;28;20200;-63
2023/01/01 01:47:44;;;;;;;12.23;9.53;;;4.00;82.50;;;;;;5033104;28;20413;-63
2023/01/01 01:50:21;;;;;;;17.57;11.93;;;4.10;82.50;;;;;;4999699;28;20562;-63
2023/01/01 01:53:01;;;;;;;18.33;12.47;;;4.20;81.90;;;;;;5041347;28;20472;-63
2023/01/01 01:55:29;;;;;;;17.03;11.80;;;4.20;81.80;;;;;;5031751;28;20442;-63
2023/01/01 01:57:56;;;;;;;19.17;13.10;;;4.20;81.50;;;;;;5039653;28;20431;-63
2023/01/01 02:00:22;;;;;;;14.87;10.83;;;4.20;81.50;;;;;;5020783;28;20470;-63
2023/01/01 02:03:12;;;;;;;16.70;11.07;;;4.30;81.40;;;;;;5014127;28;20469;-63
2023/01/01 02:05:39;;;;;;;15.10;10.47;;;4.20;81.20;;;;;;5020042;28;20204;-63
2023/01/01 02:08:05;;;;;;;16.97;11.10;;;4.20;81.20;;;;;;5005571;28;20455;-63
2023/01/01 02:10:31;;;;;;;15.87;9.63;;;4.20;80.80;;;;;;5027231;28;20465;-63
2023/01/01 02:12:57;;;;;;;18.17;10.37;;;4.10;81.30;;;;;;5018999;28;20446;-63
2023/01/01 02:15:29;;;;;;;20.37;14.03;;;4.10;81.40;;;;;;5001987;28;20183;-63
2023/01/01 02:18:09;;;;;;;20.03;13.80;;;4.00;80.20;;;;;;5030752;28;20452;-63
2023/01/01 02:20:39;;;;;;;22.90;13.67;;;4.00;80.00;;;;;;5017506;28;20438;-63
2023/01/01 02:23:33;;;;;;;20.23;12.37;;;3.90;79.70;;;;;;5023082;28;20469;-63
2023/01/01 02:26:04;;;;;;;18.53;12.57;;;3.80;80.00;;;;;;5019805;28;20437;-63
2023/01/01 02:28:51;;;;;;;17.00;12.53;;;3.60;80.30;;;;;;5031568;28;20478;-63
2023/01/01 02:31:24;;;;;;;21.67;13.93;;;3.60;81.10;;;;;;5040740;28;20437;-63
2023/01/01 02:33:53;;;;;;;18.60;12.80;;;3.50;80.90;;;;;;5023298;28;20928;-63
2023/01/01 02:36:23;;;;;;;18.60;12.73;;;3.50;80.70;;;;;;5034927;28;20438;-63
2023/01/01 02:38:53;;;;;;;18.57;12.03;;;3.30;81.00;;;;;;5032665;28;21016;-63
2023/01/01 02:41:35;;;;;;;20.00;12.60;;;3.30;80.70;;;;;;5032106;28;20512;-63
2023/01/01 02:44:03;;;;;;;18.90;13.33;;;3.20;81.10;;;;;;5030738;28;20437;-63
2023/01/01 02:46:33;;;;;;;19.23;12.43;;;3.10;80.90;;;;;;5038306;28;20438;-63
2023/01/01 02:48:59;;;;;;;20.83;14.00;;;3.10;81.10;;;;;;5014481;28;20488;-63
2023/01/01 02:51:42;;;;;;;19.87;13.17;;;3.10;81.10;;;;;;5021863;28;20426;-63
2023/01/01 02:54:16;;;;;;;15.57;11.70;;;3.00;81.60;;;;;;5042902;28;20482;-63
2023/01/01 02:57:00;;;;;;;16.27;10.60;;;3.00;83.00;;;;;;5042191;28;20495;-63
2023/01/01 03:02:35;;;;;;;15.23;10.67;;;3.10;83.50;;;;;;5036098;28;20435;-63
2023/01/01 03:05:07;;;;;;;14.40;9.40;;;3.10;83.20;;;;;;5019043;28;20416;-63
2023/01/01 03:07:57;;;;;;;13.93;9.80;;;3.10;83.40;;;;;;5028202;28;20568;-63
2023/01/01 03:10:45;;;;;;;15.30;10.30;;;3.30;83.90;;;;;;5021687;28;20446;-63
2023/01/01 03:13:34;;;;;;;13.87;7.77;;;3.30;84.20;;;;;;5026837;28;20430;-63
2023/01/01 03:16:02;;;;;;;13.50;9.63;;;3.30;83.70;;;;;;5034587;28;20437;-63
2023/01/01 03:19:10;;;;;;;17.20;11.50;;;3.50;83.90;;;;;;5043288;28;20530;-63
2023/01/01 03:22:01;;;;;;;18.57;11.30;;;3.50;83.80;;;;;;5018443;28;21028;-63
2023/01/01 03:24:38;;;;;;;18.23;12.00;;;3.60;84.10;;;;;;5026964;28;20422;-63
2023/01/01 03:27:13;;;;;;;15.53;10.27;;;3.60;83.90;;;;;;5045827;28;20422;-63
2023/01/01 03:29:41;;;;;;;13.30;9.47;;;3.70;83.70;;;;;;5021503;28;20472;-63
2023/01/01 03:32:13;;;;;;;14.57;9.97;;;3.80;83.60;;;;;;5028805;28;20441;-63
2023/01/01 03:34:44;;;;;;;17.50;10.27;;;3.90;83.30;;;;;;5027668;28;20423;-63
2023/01/01 03:37:16;;;;;;;16.27;10.73;;;3.90;82.70;;;;;;5030230;28;20520;-63
2023/01/01 03:39:50;;;;;;;12.97;9.90;;;3.90;82.30;;;;;;5044941;28;20459;-63
2023/01/01 03:42:24;;;;;;;13.47;10.10;;;3.90;82.40;;;;;;5027920;28;20433;-63
2023/01/01 03:45:11;;;;;;;12.90;9.43;;;3.90;82.10;;;;;;5021387;28;20444;-63
2023/01/01 03:47:37;;;;;;;13.97;10.47;;;3.90;81.70;;;;;;5047453;28;20427;-63
2023/01/01 03:50:04;;;;;;;13.93;9.03;;;3.70;81.10;;;;;;5016318;28;20478;-63
2023/01/01 03:52:30;;;;;;;14.07;9.83;;;3.70;80.70;;;;;;5033523;28;20194;-63
2023/01/01 03:55:04;;;;;;;11.77;8.90;;;3.60;80.00;;;;;;5038408;28;20429;-63
2023/01/01 03:58:01;;;;;;;15.37;9.83;;;3.50;80.70;;;;;;5030666;28;20193;-63
2023/01/01 04:00:35;;;;;;;13.63;9.80;;;3.30;80.50;;;;;;5040382;28;20576;-63
2023/01/01 04:03:06;;;;;;;12.97;8.77;;;3.10;80.90;;;;;;5032465;28;20429;-63
2023/01/01 04:05:36;;;;;;;14.13;8.50;;;3.10;80.90;;;;;;5042231;28;20417;-63
2023/01/01 04:08:03;;;;;;;13.60;9.37;;;3.00;81.20;;;;;;5027063;28;20554;-63
2023/01/01 04:10:33;;;;;;;13.63;9.50;;;3.00;81.50;;;;;;5019863;28;20437;-63
2023/01/01 04:13:03;;;;;;;11.23;8.63;;;3.00;81.60;;;;;;5048620;28;20429;-63
2023/01/01 04:15:29;;;;;;;12.37;8.23;;;3.00;81.90;;;;;;5027146;28;20462;-63
2023/01/01 04:17:55;;;;;;;16.07;10.27;;;2.90;82.00;;;;;;5013048;28;20419;-63
2023/01/01 04:20:22;;;;;;;13.83;9.53;;;2.80;82.50;;;;;;5031029;28;20486;-63
2023/01/01 04:22:48;;;;;;;13.20;9.40;;;2.80;82.90;;;;;;5039127;28;20274;-63
2023/01/01 04:25:16;;;;;;;9.27;6.43;;;2.80;83.00;;;;;;5020126;28;20777;-63
2023/01/01 04:27:42;;;;;;;12.73;8.57;;;2.80;82.80;;;;;;5013058;28;20421;-63
2023/01/01 04:30:10;;;;;;;13.93;8.50;;;2.80;83.00;;;;;;5033931;28;20468;-63
2023/01/01 04:32:36;;;;;;;13.43;7.63;;;2.90;83.50;;;;;;5019373;28;20199;-63
2023/01/01 04:35:01;;;;;;;11.20;7.63;;;2.90;84.00;;;;;;5016038;28;20445;-63
2023/01/01 04:37:27;;;;;;;12.57;7.87;;;2.90;84.50;;;;;;5023764;28;20214;-63
2023/01/01 04:39:53;;;;;;;10.03;6.83;;;3.00;85.10;;;;;;5029990;28;20215;-63
2023/01/01 04:42:19;;;;;;;12.97;8.40;;;3.10;84.80;;;;;;5021698;28;20187;-63
2023/01/01 04:44:44;;;;;;;13.00;7.57;;;3.20;85.00;;;;;;5030569;28;20218;-63
2023/01/01 04:47:10;;;;;;;9.73;6.83;;;3.30;84.90;;;;;;5025612;28;20194;-63
2023/01/01 04:49:36;;;;;;;11.23;7.80;;;3.30;84.70;;;;;;5044496;28;20198;-63
2023/01/01 04:52:02;;;;;;;10.90;7.47;;;3.30;84.40;;;;;;5025305;28;20183;-63
2023/01/01 04:54:27;;;;;;;10.50;7.50;;;3.30;84.20;;;;;;5015690;28;20193;-63
2023/01/01 04:56:53;;;;;;;13.43;8.30;;;3.40;84.20;;;;;;5026533;28;20552;-63
2023/01/01 04:59:19;;;;;;;11.47;7.50;;;3.50;84.30;;;;;;5017381;28;20329;-63
2023/01/01 05:01:44;;;;;;;11.80;7.07;;;3.50;84.10;;;;;;5024799;28;20191;-63
2023/01/01 05:04:13;;;;;;;9.93;7.37;;;3.50;84.00;;;;;;5003707;28;20215;-63
2023/01/01 05:06:39;;;;;;;9.80;6.97;;;3.50;84.00;;;;;;5026858;28;20293;-63
2023/01/01 05:09:05;;;;;;;10.97;7.10;;;3.60;83.80;;;;;;5020756;28;20466;-63
2023/01/01 05:11:31;;;;;;;10.37;7.43;;;3.60;83.80;;;;;;5015560;28;20196;-63
2023/01/01 05:14:00;;;;;;;10.10;6.70;;;3.70;83.70;;;;;;5015932;28;20198;-63
2023/01/01 05:16:29;;;;;;;11.10;7.77;;;3.70;83.70;;;;;;5017374;28;20430;-63
2023/01/01 05:18:55;;;;;;;11.77;7.00;;;3.70;83.60;;;;;;5020324;28;20430;-63
2023/01/01 05:21:26;;;;;;;9.20;6.30;;;3.80;83.60;;;;;;5026830;28;20469;-63
2023/01/01 05:23:58;;;;;;;8.87;6.30;;;3.90;83.50;;;;;;5025347;28;20439;-63
2023/01/01 05:26:27;;;;;;;13.27;8.47;;;3.90;83.40;;;;;;5022393;28;20431;-63
2023/01/01 05:28:53;;;;;;;9.57;6.47;;;3.90;83.20;;;;;;5030946;28;20508;-63
2023/01/01 05:31:21;;;;;;;10.10;7.07;;;3.90;83.00;;;;;;5018579;28;20433;-63
2023/01/01 05:33:48;;;;;;;9.87;6.70;;;3.90;83.00;;;;;;5028300;28;20422;-63
2023/01/01 05:36:17;;;;;;;9.43;6.83;;;3.90;83.10;;;;;;5034131;28;20468;-63
2023/01/01 05:38:43;;;;;;;8.60;6.00;;;3.90;83.10;;;;;;5037938;28;20469;-63
2023/01/01 05:41:12;;;;;;;9.37;6.37;;;3.90;83.10;;;;;;5024863;28;20466;-63
2023/01/01 05:43:38;;;;;;;8.70;6.53;;;4.00;83.00;;;;;;5021610;28;20183;-63
2023/01/01 05:46:06;;;;;;;11.07;6.80;;;4.00;82.90;;;;;;5028100;28;20540;-63
2023/01/01 05:48:35;;;;;;;11.57;7.03;;;4.10;82.70;;;;;;5031017;28;20490;-63
2023/01/01 05:51:09;;;;;;;8.10;6.20;;;4.20;82.40;;;;;;5023548;28;20442;-63
2023/01/01 05:53:35;;;;;;;11.37;7.20;;;4.30;82.20;;;;;;5020679;28;20435;-63
2023/01/01 05:56:01;;;;;;;10.20;6.53;;;4.40;81.70;;;;;;5028124;28;20444;-63
2023/01/01 05:58:29;;;;;;;9.80;6.93;;;4.40;81.40;;;;;;5041688;28;20205;-63
2023/01/01 06:00:55;;;;;;;9.73;6.50;;;4.50;80.80;;;;;;5021228;28;20465;-63
2023/01/01 06:03:21;;;;;;;9.10;6.53;;;4.50;80.30;;;;;;5041159;28;20422;-63
2023/01/01 06:05:47;;;;;;;8.47;5.37;;;4.50;80.30;;;;;;5014173;28;20565;-63
2023/01/01 06:08:13;;;;;;;10.20;6.97;;;4.60;80.30;;;;;;5015842;28;20462;-63
2023/01/01 06:10:39;;;;;;;8.67;5.60;;;4.60;80.20;;;;;;5021890;28;20210;-63
2023/01/01 06:13:05;;;;;;;12.57;6.60;;;4.70;80.30;;;;;;5025554;28;20423;-63
2023/01/01 06:15:31;;;;;;;9.70;7.00;;;4.70;80.00;;;;;;5014171;28;20188;-63
2023/01/01 06:17:57;;;;;;;7.30;5.43;;;4.70;79.60;;;;;;5008436;28;20677;-62
2023/01/01 06:20:23;;;;;;;9.17;6.67;;;4.70;79.60;;;;;;5012463;28;20195;-63
2023/01/01 06:22:49;;;;;;;8.13;6.07;;;4.80;79.60;;;;;;5032552;28;20436;-63
2023/01/01 06:25:15;;;;;;;10.00;6.30;;;4.80;79.40;;;;;;5021626;28;20423;-63
2023/01/01 06:27:41;;;;;;;6.97;5.60;;;4.80;79.30;;;;;;5023994;28;20264;-63
2023/01/01 06:30:07;;;;;;;9.33;6.80;;;4.80;79.30;;;;;;5022865;28;20211;-63
2023/01/01 06:32:33;;;;;;;9.13;6.97;;;4.70;79.30;;;;;;5037657;28;20190;-63
2023/01/01 06:34:59;;;;;;;12.97;6.80;;;4.70;79.10;;;;;;5014325;28;20418;-63
2023/01/01 06:37:26;;;;;;;8.50;5.63;;;4.70;79.00;;;;;;5036305;28;20431;-63
2023/01/01 06:39:52;;;;;;;8.33;6.53;;;4.80;79.00;;;;;;5023983;28;20213;-63
2023/01/01 06:42:18;;;;;;;7.80;6.30;;;4.80;78.90;;;;;;5022030;28;20451;-62
2023/01/01 06:44:43;;;;;;;8.57;6.17;;;4.80;78.70;;;;;;5009754;28;20187;-63
2023/01/01 06:47:09;;;;;;;10.97;6.80;;;4.80;78.70;;;;;;5022331;28;20191;-63
2023/01/01 06:49:34;;;;;;;9.63;6.90;;;4.90;78.50;;;;;;5029477;28;20217;-63
2023/01/01 06:52:00;;;;;;;8.10;5.97;;;4.90;78.70;;;;;;5014975;28;20219;-63
2023/01/01 06:54:26;;;;;;;9.17;6.27;;;4.90;78.70;;;;;;5028320;28;20191;-63
2023/01/01 06:56:52;;;;;;;9.60;6.43;;;4.90;78.50;;;;;;5023623;28;20184;-63
2023/01/01 06:59:17;;;;;;;9.27;7.33;;;5.00;78.20;;;;;;5012878;28;20202;-63
2023/01/01 07:01:43;;;;;;;9.60;6.63;;;5.00;78.00;;;;;;5027937;28;20196;-63
2023/01/01 07:04:15;;;;;;;7.67;5.53;;;5.00;77.60;;;;;;5018917;28;20195;-63
2023/01/01 07:06:41;;;;;;;8.53;6.30;;;5.10;77.60;;;;;;5031147;28;20264;-63
2023/01/01 07:09:08;;;;;;;8.87;6.50;;;5.20;77.10;;;;;;5026311;28;20570;-63
2023/01/01 07:11:34;;;;;;;8.90;6.47;;;5.30;77.30;;;;;;5008125;28;20456;-63
2023/01/01 07:14:01;;;;;;;9.20;6.43;;;5.30;77.20;;;;;;5017217;28;20470;-63
2023/01/01 07:16:26;;;;;;;9.73;6.10;;;5.30;76.90;;;;;;5023790;28;20426;-63
2023/01/01 07:18:52;;;;;;;9.13;6.00;;;5.30;77.10;;;;;;5019088;28;20439;-63
2023/01/01 07:21:31;;;;;;;7.17;5.60;;;5.30;77.20;;;;;;5012104;28;20201;-63
2023/01/01 07:23:58;;;;;;;9.17;5.90;;;5.30;77.30;;;;;;5024267;28;20437;-63
2023/01/01 07:26:25;;;;;;;8.23;6.20;;;5.30;77.40;;;;;;5027722;28;20434;-63
2023/01/01 07:28:51;;;;;;;9.37;6.60;;;5.30;77.50;;;;;;5009028;28;20471;-63
2023/01/01 07:31:17;;;;;;;7.90;5.83;;;5.30;77.40;;;;;;5034422;28;20431;-63
2023/01/01 07:33:42;;;;;;;7.40;5.37;;;5.40;77.50;;;;;;5040421;28;20423;-63
2023/01/01 07:36:08;;;;;;;8.33;5.90;;;5.40;77.20;;;;;;5013609;28;20240;-63
2023/01/01 07:38:34;;;;;;;8.20;6.37;;;5.50;76.80;;;;;;5018029;28;20674;-63
2023/01/01 07:40:59;;;;;;;7.60;6.23;;;5.50;76.50;;;;;;5022689;28;20218;-63
2023/01/01 07:43:25;;;;;;;9.27;6.27;;;5.50;76.50;;;;;;5018774;28;20209;-63
2023/01/01 07:45:51;;;;;;;7.67;5.60;;;5.60;76.40;;;;;;5018249;28;20205;-63
2023/01/01 07:48:16;;;;;;;6.97;5.13;;;5.70;76.00;;;;;;5017431;28;20230;-63
2023/01/01 07:50:42;;;;;;;7.70;6.33;;;5.80;75.70;;;;;;5028000;28;20179;-63
2023/01/01 07:53:08;;;;;;;6.00;4.90;;;5.90;75.20;;;;;;5025424;28;20191;-63
2023/01/01 07:55:34;;;;;;;8.63;5.73;;;6.00;75.30;;;;;;5026584;28;20188;-63
2023/01/01 07:58:01;;;;;;;8.03;5.10;;;6.00;75.00;;;;;;5013227;28;20210;-62
2023/01/01 08:00:27;;;;;;;8.30;5.80;;;6.10;75.20;;;;;;5011607;28;20425;-63
2023/01/01 08:02:52;;;;;;;6.13;4.53;;;6.10;75.40;;;;;;5025555;28;20454;-63
2023/01/01 08:05:18;;;;;;;6.97;5.43;;;6.20;75.20;;;;;;5016321;28;20191;-62
2023/01/01 08:07:48;;;;;;;6.97;5.20;;;6.20;75.10;;;;;;5015828;28;20239;-63
2023/01/01 08:10:15;;;;;;;10.00;6.53;;;6.30;74.80;;;;;;5027136;28;20211;-63
2023/01/01 08:12:41;;;;;;;7.20;5.73;;;6.40;74.20;;;;;;5047652;28;20460;-62
2023/01/01 08:15:08;;;;;;;7.87;6.10;;;6.40;72.90;;;;;;5021952;28;20423;-63
2023/01/01 08:17:34;;;;;;;7.80;6.13;;;6.50;72.40;;;;;;5021473;28;20196;-63
2023/01/01 08:19:59;;;;;;;8.37;5.67;;;6.50;72.70;;;;;;5025483;28;20423;-63
2023/01/01 08:22:25;;;;;;;8.20;5.77;;;6.50;73.20;;;;;;5005687;28;20279;-63
2023/01/01 08:24:51;;;;;;;6.57;5.23;;;6.50;73.10;;;;;;5017736;28;20202;-63
2023/01/01 08:27:17;;;;;;;8.10;5.83;;;6.40;73.50;;;;;;5022828;28;20192;-63
2023/01/01 08:29:43;;;;;;;8.10;5.83;;;6.40;73.50;;;;;;5007387;28;20212;-62
2023/01/01 08:32:10;;;;;;;8.83;6.47;;;6.40;73.70;;;;;;5004533;28;20191;-63
2023/01/01 08:34:36;;;;;;;7.43;5.77;;;6.40;74.20;;;;;;5019615;28;20453;-62
2023/01/01 08:37:01;;;;;;;6.93;5.53;;;6.30;74.20;;;;;;5010725;28;20437;-62
2023/01/01 08:39:27;;;;;;;6.73;5.60;;;6.30;74.30;;;;;;5040459;28;20190;-62
2023/01/01 08:41:53;;;;;;;8.83;5.80;;;6.30;74.40;;;;;;5019801;28;20187;-63
2023/01/01 08:44:19;;;;;;;9.10;5.83;;;6.30;74.60;;;;;;5029479;28;20195;-62
2023/01/01 08:46:44;;;;;;;6.23;5.20;;;6.30;74.60;;;;;;5026078;28;20314;-62
2023/01/01 08:49:10;;;;;;;8.83;5.90;;;6.30;75.30;;;;;;5028182;28;20214;-62
2023/01/01 08:51:36;;;;;;;6.70;5.53;;;6.20;75.50;;;;;;5042455;28;20756;-63
2023/01/01 08:54:02;;;;;;;5.87;5.13;;;6.20;75.90;;;;;;5023205;28;20187;-63
2023/01/01 08:56:27;;;;;;;7.37;4.83;;;6.30;75.70;;;;;;5024663;28;20270;-62
2023/01/01 08:58:53;;;;;;;8.00;5.17;;;6.20;75.80;;;;;;5027064;28;20473;-63
2023/01/01 09:01:20;;;;;;;6.70;4.83;;;6.30;75.80;;;;;;5021952;28;20196;-63
2023/01/01 09:03:47;;;;;;;6.47;5.50;;;6.30;75.50;;;;;;5029513;28;20675;-62
2023/01/01 09:06:13;;;;;;;6.70;4.90;;;6.30;75.50;;;;;;5027253;28;20489;-63
2023/01/01 09:08:39;;;;;;;4.87;3.93;;;6.40;75.60;;;;;;5006527;28;20505;-63
2023/01/01 09:11:05;;;;;;;4.70;3.90;;;6.40;75.80;;;;;;5010075;28;20423;-63
2023/01/01 09:13:31;;;;;;;5.83;4.43;;;6.40;75.50;;;;;;5023369;28;20183;-63
2023/01/01 09:15:57;;;;;;;9.03;5.23;;;6.40;75.60;;;;;;5038708;28;20199;-63
2023/01/01 09:18:23;;;;;;;5.90;4.67;;;6.50;75.20;;;;;;5011291;28;20430;-63
2023/01/01 09:20:49;;;;;;;7.10;5.53;;;6.50;75.00;;;;;;5026785;28;20418;-63
2023/01/01 09:23:14;;;;;;;7.80;5.00;;;6.50;74.90;;;;;;5021246;28;20203;-63
2023/01/01 09:25:40;;;;;;;8.13;5.60;;;6.60;75.00;;;;;;5003840;28;20187;-63
2023/01/01 09:28:10;;;;;;;6.80;4.67;;;6.60;75.20;;;;;;5019201;28;20195;-63
2023/01/01 09:30:36;;;;;;;4.60;4.10;;;6.60;75.10;;;;;;5027122;28;20289;-63
2023/01/01 09:33:02;;;;;;;6.07;4.30;;;6.70;75.00;;;;;;5023698;28;20426;-63
2023/01/01 09:35:29;;;;;;;5.47;3.63;;;6.70;74.90;;;;;;5033976;28;20439;-63
2023/01/01 09:37:55;;;;;;;7.30;4.17;;;6.90;74.60;;;;;;5013077;28;20434;-63
2023/01/01 09:40:30;;;;;;;6.60;4.53;;;7.00;73.90;;;;;;5038990;28;20191;-63
2023/01/01 09:43:17;;;;;;;4.77;4.27;;;7.00;73.20;;;;;;5027747;28;20512;-63
2023/01/01 09:45:57;;;;;;;5.90;4.60;;;7.20;72.90;;;;;;5025118;28;20521;-63
2023/01/01 09:48:24;;;;;;;5.37;4.67;;;7.30;72.70;;;;;;5029420;28;20430;-63
2023/01/01 09:50:50;;;;;;;4.37;3.83;;;7.40;72.30;;;;;;5021028;28;20526;-62
2023/01/01 09:53:44;;;;;;;4.40;3.60;;;7.50;72.10;;;;;;5013897;28;20518;-63
2023/01/01 09:56:20;;;;;;;5.83;4.60;;;7.50;72.10;;;;;;5027870;28;20176;-63
2023/01/01 09:58:45;;;;;;;5.50;4.37;;;7.50;71.40;;;;;;5020789;28;20441;-62
2023/01/01 10:01:40;;;;;;;4.80;3.63;;;7.60;70.80;;;;;;5025813;28;20184;-62
2023/01/01 10:04:27;;;;;;;6.00;4.10;;;7.70;70.40;;;;;;5036618;28;20183;-62
2023/01/01 10:06:53;;;;;;;5.83;4.10;;;7.80;69.90;;;;;;5024513;28;20485;-63
2023/01/01 10:09:29;;;;;;;4.70;3.93;;;7.80;69.90;;;;;;5017092;28;20208;-63
2023/01/01 10:12:01;;;;;;;4.50;3.60;;;7.90;69.90;;;;;;5024588;28;20179;-63
2023/01/01 10:14:27;;;;;;;5.80;4.30;;;7.90;69.80;;;;;;5018471;28;20187;-63
2023/01/01 10:16:54;;;;;;;5.17;4.10;;;8.00;69.30;;;;;;5036780;28;20198;-63
2023/01/01 10:19:36;;;;;;;5.53;4.60;;;8.10;69.10;;;;;;5032136;28;20196;-63
2023/01/01 10:22:12;;;;;;;4.67;4.13;;;8.20;68.40;;;;;;5031225;28;20202;-63
2023/01/01 10:25:07;;;;;;;5.33;3.70;;;8.30;68.30;;;;;;5034672;28;20203;-63
2023/01/01 10:27:42;;;;;;;7.30;4.40;;;8.40;68.00;;;;;;5036640;28;20198;-63
2023/01/01 10:30:17;;;;;;;4.30;3.57;;;8.60;66.90;;;;;;5028452;28;20213;-63
2023/01/01 10:32:47;;;;;;;6.47;3.90;;;8.80;65.40;;;;;;5031413;28;20183;-63
2023/01/01 10:35:30;;;;;;;4.63;3.13;;;9.00;64.50;;;;;;5030358;28;20646;-63
2023/01/01 10:37:59;;;;;;;4.57;3.10;;;9.00;64.00;;;;;;5031381;28;20180;-64
2023/01/01 10:40:27;;;;;;;5.17;3.70;;;9.20;63.60;;;;;;5025904;28;20190;-64
2023/01/01 10:42:57;;;;;;;4.20;3.47;;;9.40;63.00;;;;;;5025302;28;20278;-64
2023/01/01 10:45:34;;;;;;;3.83;3.03;;;9.60;62.30;;;;;;5031760;28;20187;-62
2023/01/01 10:48:09;;;;;;;4.33;3.10;;;9.80;61.90;;;;;;5023789;28;20653;-62
2023/01/01 10:51:13;;;;;;;3.37;2.77;;;10.00;61.60;;;;;;5038118;28;20211;-62
2023/01/01 10:53:49;;;;;;;6.50;3.40;;;10.10;62.10;;;;;;5046804;28;20175;-61
2023/01/01 10:56:20;;;;;;;4.53;3.13;;;10.30;60.90;;;;;;5023990;28;20179;-62
2023/01/01 10:58:47;;;;;;;13.67;8.80;;;10.40;59.60;;;;;;5029071;28;20191;-61
2023/01/01 11:01:19;;;;;;;17.27;13.17;;;10.60;60.10;;;;;;5018583;28;20214;-64
2023/01/01 11:03:58;;;;;;;13.67;11.20;;;10.70;59.90;;;;;;5020515;28;20183;-61
2023/01/01 11:06:34;;;;;;;13.50;9.07;;;10.80;59.70;;;;;;5031025;28;21223;-61
2023/01/01 11:09:03;;;;;;;10.13;8.13;;;10.80;59.70;;;;;;5026281;28;20737;-61
2023/01/01 11:11:31;;;;;;;8.67;5.17;;;10.70;59.60;;;;;;5018827;28;20702;-62
2023/01/01 11:14:00;;;;;;;5.23;4.37;;;10.80;59.00;;;;;;5036184;28;20219;-62
2023/01/01 11:16:27;;;;;;;4.93;3.33;;;10.90;58.90;;;;;;5014376;28;20188;-61
2023/01/01 11:19:04;;;;;;;3.53;2.90;;;11.00;58.20;;;;;;5004467;28;20286;-61
2023/01/01 11:21:30;;;;;;;12.97;9.17;;;11.10;58.00;;;;;;5036313;28;20190;-61
2023/01/01 11:24:17;;;;;;;13.53;9.73;;;11.10;57.90;;;;;;5020528;28;20192;-61
2023/01/01 11:26:43;;;;;;;14.47;11.03;;;11.10;59.00;;;;;;5026494;28;20196;-61
2023/01/01 11:29:15;;;;;;;20.50;14.37;;;11.10;58.30;;;;;;5015962;28;20211;-62
2023/01/01 11:31:44;;;;;;;19.63;13.33;;;11.10;59.30;;;;;;5027937;28;20183;-61
2023/01/01 11:34:38;;;;;;;15.87;12.63;;;11.10;58.50;;;;;;5026986;28;20203;-62
2023/01/01 11:37:26;;;;;;;18.00;11.93;;;11.10;58.70;;;;;;5028022;28;20214;-62
2023/01/01 11:39:54;;;;;;;14.90;10.73;;;11.10;58.70;;;;;;5026542;28;20279;-61
2023/01/01 11:42:23;;;;;;;13.70;11.20;;;11.10;58.70;;;;;;5027822;28;20186;-61
2023/01/01 11:44:59;;;;;;;14.90;10.53;;;11.10;58.80;;;;;;5037137;28;20187;-62
2023/01/01 11:47:41;;;;;;;12.07;8.43;;;11.10;58.40;;;;;;5028069;28;20209;-62
2023/01/01 11:50:13;;;;;;;12.83;9.17;;;11.20;58.40;;;;;;5025520;28;20210;-61
2023/01/01 11:52:44;;;;;;;13.87;9.87;;;11.20;58.00;;;;;;5023783;28;20180;-61
2023/01/01 11:55:44;;;;;;;17.73;11.93;;;11.30;59.00;;;;;;5020323;28;20183;-61
2023/01/01 11:58:22;;;;;;;20.57;13.43;;;11.40;58.00;;;;;;5028635;28;20195;-60
2023/01/01 12:00:51;;;;;;;16.57;11.97;;;11.60;58.40;;;;;;5034541;28;20184;-60
2023/01/01 12:03:34;;;;;;;12.30;9.23;;;11.70;58.00;;;;;;5019268;28;20270;-60
2023/01/01 12:06:18;;;;;;;12.80;9.57;;;11.80;57.80;;;;;;5018745;28;20262;-60
2023/01/01 12:09:01;;;;;;;14.93;10.43;;;11.90;57.30;;;;;;5013317;28;20253;-61
2023/01/01 12:11:40;;;;;;;14.47;10.03;;;12.00;56.50;;;;;;5026378;28;20203;-60
2023/01/01 12:14:23;;;;;;;14.40;10.20;;;12.10;56.70;;;;;;5019551;28;20252;-61
2023/01/01 12:16:57;;;;;;;14.30;10.57;;;12.20;56.50;;;;;;5027799;28;20183;-60
2023/01/01 12:19:41;;;;;;;13.63;10.87;;;12.20;55.50;;;;;;5033809;28;20188;-60
2023/01/01 12:22:15;;;;;;;19.03;12.23;;;12.30;56.20;;;;;;5029044;28;20215;-60
2023/01/01 12:24:41;;;;;;;14.63;11.40;;;12.50;56.80;;;;;;5043500;28;20192;-60
2023/01/01 12:27:45;;;;;;;12.43;9.60;;;12.50;56.40;;;;;;5019579;28;20279;-60
2023/01/01 12:30:25;;;;;;;12.20;9.50;;;12.50;55.60;;;;;;5021064;28;20214;-61
2023/01/01 12:33:14;;;;;;;11.57;8.73;;;12.70;55.90;;;;;;5028250;28;20180;-62
2023/01/01 12:35:57;;;;;;;12.33;8.17;;;12.70;55.60;;;;;;5032688;28;20218;-62
2023/01/01 12:38:44;;;;;;;11.67;8.73;;;12.80;54.70;;;;;;5038135;28;20184;-62
2023/01/01 12:41:13;;;;;;;13.40;8.67;;;12.90;54.20;;;;;;5024929;28;20199;-60
2023/01/01 12:43:54;;;;;;;10.63;8.27;;;13.00;54.70;;;;;;5034782;28;20203;-62
2023/01/01 12:46:48;;;;;;;18.43;12.20;;;13.00;54.40;;;;;;5032139;28;20186;-61
2023/01/01 12:49:51;;;;;;;13.17;9.93;;;13.10;53.80;;;;;;5034083;28;20687;-63
2023/01/01 12:52:34;;;;;;;12.33;9.23;;;13.10;54.20;;;;;;5033691;28;20184;-62
2023/01/01 12:55:38;;;;;;;12.03;8.17;;;13.10;54.00;;;;;;5040518;28;20184;-62
2023/01/01 12:58:17;;;;;;;10.10;7.27;;;13.10;54.30;;;;;;5032652;28;20176;-62
2023/01/01 13:00:54;;;;;;;12.07;8.77;;;13.00;54.30;;;;;;5045427;28;20282;-62
2023/01/01 13:03:32;;;;;;;8.53;6.87;;;13.00;54.40;;;;;;5018531;28;20179;-62
2023/01/01 13:06:00;;;;;;;15.30;9.63;;;12.90;55.10;;;;;;5020145;28;20194;-62
2023/01/01 13:08:26;;;;;;;19.10;13.30;;;12.80;55.00;;;;;;5027297;28;20198;-62